createdAt,value
2017-02-27T00:00:46.290Z,9.3
2017-02-27T00:01:52.272Z,9.2
2017-02-27T00:02:58.258Z,9.3
2017-02-27T00:04:04.242Z,9.3
2017-02-27T00:05:10.226Z,9.3
2017-02-27T00:06:16.205Z,9.3
2017-02-27T00:07:22.194Z,9.3
2017-02-27T00:08:28.176Z,9.3
2017-02-27T00:09:34.156Z,9.3
2017-02-27T00:10:39.472Z,9.3
2017-02-27T00:11:44.798Z,9.3
2017-02-27T00:12:50.777Z,9.3
2017-02-27T00:13:56.759Z,9.2
2017-02-27T00:15:02.745Z,9.3
2017-02-27T00:16:08.732Z,9.3
2017-02-27T00:17:14.717Z,9.3
2017-02-27T00:18:20.702Z,9.3
2017-02-27T00:19:26.685Z,9.3
2017-02-27T00:20:32.667Z,9.4
2017-02-27T00:21:38.644Z,9.4
2017-02-27T00:22:44.633Z,9.4
2017-02-27T00:23:50.613Z,9.4
2017-02-27T00:24:56.594Z,9.4
2017-02-27T00:26:02.584Z,9.4
2017-02-27T00:27:07.469Z,9.4
2017-02-27T00:28:13.449Z,9.4
2017-02-27T00:29:19.431Z,9.4
2017-02-27T00:30:25.419Z,9.4
2017-02-27T00:31:31.397Z,9.4
2017-02-27T00:32:37.378Z,9.4
2017-02-27T00:33:42.698Z,9.5
2017-02-27T00:34:48.687Z,9.5
2017-02-27T00:35:54.668Z,9.5
2017-02-27T00:37:00.650Z,9.4
2017-02-27T00:38:06.636Z,9.4
2017-02-27T00:39:12.621Z,9.4
2017-02-27T00:40:17.504Z,9.4
2017-02-27T00:41:23.483Z,9.4
2017-02-27T00:42:29.467Z,9.4
2017-02-27T00:43:35.451Z,9.4
2017-02-27T00:44:41.440Z,9.4
2017-02-27T00:45:47.421Z,9.4
2017-02-27T00:46:53.403Z,9.4
2017-02-27T00:47:59.389Z,9.4
2017-02-27T00:49:05.371Z,9.4
2017-02-27T00:50:11.352Z,9.4
2017-02-27T00:51:17.335Z,9.4
2017-02-27T00:52:23.318Z,9.5
2017-02-27T00:53:28.639Z,9.4
2017-02-27T00:54:34.623Z,9.5
2017-02-27T00:55:40.609Z,9.5
2017-02-27T00:56:46.595Z,9.4
2017-02-27T00:57:52.579Z,9.4
2017-02-27T00:58:58.564Z,9.4
2017-02-27T01:00:04.547Z,9.4
2017-02-27T01:01:10.535Z,9.4
2017-02-27T01:02:15.417Z,9.4
2017-02-27T01:03:21.403Z,9.4
2017-02-27T01:04:26.721Z,9.4
2017-02-27T01:05:32.706Z,9.4
2017-02-27T01:06:38.691Z,9.4
2017-02-27T01:07:44.670Z,9.4
2017-02-27T01:08:50.651Z,9.4
2017-02-27T01:09:56.638Z,9.4
2017-02-27T01:11:02.625Z,9.4
2017-02-27T01:12:08.608Z,9.4
2017-02-27T01:13:14.593Z,9.4
2017-02-27T01:14:20.578Z,9.4
2017-02-27T01:15:26.563Z,9.4
2017-02-27T01:16:32.547Z,9.4
2017-02-27T01:17:38.530Z,9.4
2017-02-27T01:18:44.514Z,9.4
2017-02-27T01:19:49.831Z,9.4
2017-02-27T01:20:55.149Z,9.5
2017-02-27T01:22:01.134Z,9.4
2017-02-27T01:23:07.121Z,9.5
2017-02-27T01:24:13.102Z,9.5
2017-02-27T01:25:19.087Z,9.4
2017-02-27T01:26:25.071Z,9.4
2017-02-27T01:27:29.294Z,9.4
2017-02-27T01:28:35.276Z,9.4
2017-02-27T01:29:41.254Z,9.4
2017-02-27T01:30:47.241Z,9.4
2017-02-27T01:31:53.226Z,9.4
2017-02-27T01:32:59.211Z,9.4
2017-02-27T01:34:05.187Z,9.4
2017-02-27T01:53:38.204Z,9.5
2017-02-27T01:54:44.187Z,9.4
2017-02-27T01:55:50.175Z,9.4
2017-02-27T01:56:56.165Z,9.4
2017-02-27T01:58:02.145Z,9.5
2017-02-27T01:59:08.128Z,9.4
2017-02-27T02:00:13.452Z,9.5
2017-02-27T02:01:19.434Z,9.4
2017-02-27T02:02:24.317Z,9.4
2017-02-27T02:03:30.301Z,9.4
2017-02-27T02:04:36.281Z,9.3
2017-02-27T02:05:42.266Z,9.3
2017-02-27T02:06:48.255Z,9.3
2017-02-27T02:07:54.241Z,9.3
2017-02-27T02:08:59.125Z,9.3
2017-02-27T02:10:05.105Z,9.3
2017-02-27T02:11:11.094Z,9.4
2017-02-27T02:12:17.070Z,9.3
2017-02-27T02:13:23.052Z,9.3
2017-02-27T02:14:29.035Z,9.3
2017-02-27T02:15:35.022Z,9.4
2017-02-27T02:16:41.007Z,9.3
2017-02-27T02:17:46.987Z,9.3
2017-02-27T02:18:52.971Z,9.3
2017-02-27T02:19:58.959Z,9.3
2017-02-27T02:21:04.278Z,9.3
2017-02-27T02:22:10.263Z,9.3
2017-02-27T02:23:16.247Z,9.3
2017-02-27T02:24:22.232Z,9.3
2017-02-27T02:25:28.215Z,9.4
2017-02-27T02:26:33.101Z,9.4
2017-02-27T02:27:39.086Z,9.4
2017-02-27T02:28:45.071Z,9.4
2017-02-27T02:29:51.053Z,9.4
2017-02-27T02:30:57.035Z,9.4
2017-02-27T02:32:03.017Z,9.4
2017-02-27T02:33:09.003Z,9.4
2017-02-27T02:34:14.983Z,9.5
2017-02-27T02:35:20.966Z,9.5
2017-02-27T02:36:26.952Z,9.5
2017-02-27T02:37:32.935Z,9.5
2017-02-27T02:38:38.919Z,9.5
2017-02-27T02:39:44.905Z,9.5
2017-02-27T02:40:50.888Z,9.4
2017-02-27T02:41:56.873Z,9.4
2017-02-27T02:43:01.757Z,9.4
2017-02-27T02:44:07.739Z,9.4
2017-02-27T02:45:13.721Z,9.4
2017-02-27T02:46:19.702Z,9.4
2017-02-27T02:47:25.682Z,9.5
2017-02-27T02:48:31.666Z,9.5
2017-02-27T02:49:37.651Z,9.4
2017-02-27T02:50:43.633Z,9.4
2017-02-27T02:51:49.616Z,9.5
2017-02-27T02:52:55.597Z,9.5
2017-02-27T02:54:01.581Z,9.5
2017-02-27T02:55:07.566Z,9.5
2017-02-27T02:56:13.554Z,9.5
2017-02-27T02:57:19.536Z,9.5
2017-02-27T02:58:25.520Z,9.5
2017-02-27T02:59:31.502Z,9.5
2017-02-27T03:00:37.482Z,9.4
2017-02-27T03:01:43.463Z,9.5
2017-02-27T03:02:49.448Z,9.5
2017-02-27T03:03:55.431Z,9.5
2017-02-27T03:05:01.413Z,9.5
2017-02-27T03:06:06.734Z,9.5
2017-02-27T03:07:12.717Z,9.5
2017-02-27T03:08:18.703Z,9.5
2017-02-27T03:09:24.686Z,9.5
2017-02-27T03:10:30.672Z,9.5
2017-02-27T03:11:36.657Z,9.5
2017-02-27T03:12:42.644Z,9.5
2017-02-27T03:13:48.622Z,9.5
2017-02-27T03:14:54.607Z,9.5
2017-02-27T03:16:00.597Z,9.5
2017-02-27T03:17:05.917Z,9.6
2017-02-27T03:18:11.897Z,9.6
2017-02-27T03:19:17.876Z,9.7
2017-02-27T03:20:23.202Z,9.6
2017-02-27T03:21:29.186Z,9.6
2017-02-27T03:22:35.168Z,9.6
2017-02-27T03:23:41.152Z,9.6
2017-02-27T03:24:47.141Z,9.6
2017-02-27T03:25:53.122Z,9.6
2017-02-27T03:26:59.104Z,9.6
2017-02-27T03:28:05.087Z,9.6
2017-02-27T03:29:11.069Z,9.6
2017-02-27T03:30:17.052Z,9.6
2017-02-27T03:31:23.035Z,9.6
2017-02-27T03:32:29.020Z,9.5
2017-02-27T03:33:35.002Z,9.5
2017-02-27T03:34:40.987Z,9.6
2017-02-27T03:35:46.969Z,9.6
2017-02-27T03:36:52.959Z,9.6
2017-02-27T03:37:58.937Z,9.6
2017-02-27T03:39:04.922Z,9.6
2017-02-27T03:40:10.907Z,9.6
2017-02-27T03:41:16.888Z,9.6
2017-02-27T03:42:22.205Z,9.6
2017-02-27T03:43:27.527Z,9.6
2017-02-27T03:44:32.849Z,9.6
2017-02-27T03:45:38.826Z,9.6
2017-02-27T03:46:44.815Z,9.6
2017-02-27T03:47:50.803Z,9.6
2017-02-27T03:48:55.689Z,9.6
2017-02-27T03:50:01.669Z,9.6
2017-02-27T03:51:06.996Z,9.6
2017-02-27T03:52:12.976Z,9.6
2017-02-27T03:53:18.960Z,9.5
2017-02-27T03:54:24.275Z,9.5
2017-02-27T03:55:30.265Z,9.6
2017-02-27T03:56:36.245Z,9.6
2017-02-27T03:57:42.232Z,9.5
2017-02-27T03:58:47.551Z,9.5
2017-02-27T03:59:53.536Z,9.5
2017-02-27T04:00:59.517Z,9.5
2017-02-27T04:02:04.403Z,9.6
2017-02-27T04:03:10.383Z,9.6
2017-02-27T04:04:16.369Z,9.6
2017-02-27T04:05:22.355Z,9.6
2017-02-27T04:06:28.340Z,9.6
2017-02-27T04:07:34.329Z,9.6
2017-02-27T04:08:40.314Z,9.6
2017-02-27T04:09:46.295Z,9.6
2017-02-27T04:10:52.279Z,9.6
2017-02-27T04:11:58.262Z,9.6
2017-02-27T04:13:04.247Z,9.6
2017-02-27T04:14:10.232Z,9.6
2017-02-27T04:15:15.552Z,9.6
2017-02-27T04:16:21.538Z,9.6
2017-02-27T04:17:26.858Z,9.5
2017-02-27T04:18:31.740Z,9.5
2017-02-27T04:19:37.060Z,9.6
2017-02-27T04:20:43.041Z,9.6
2017-02-27T04:21:49.027Z,9.6
2017-02-27T04:22:55.011Z,9.6
2017-02-27T04:24:00.997Z,9.5
2017-02-27T04:25:06.317Z,9.5
2017-02-27T04:26:12.302Z,9.5
2017-02-27T04:27:18.284Z,9.5
2017-02-27T04:28:24.264Z,9.6
2017-02-27T04:29:30.248Z,9.5
2017-02-27T04:30:36.234Z,9.5
2017-02-27T04:31:42.219Z,9.5
2017-02-27T04:32:48.204Z,9.4
2017-02-27T04:33:54.190Z,9.4
2017-02-27T04:35:00.176Z,9.4
2017-02-27T04:36:06.160Z,9.4
2017-02-27T04:37:10.819Z,9.4
2017-02-27T04:38:16.799Z,9.4
2017-02-27T04:39:22.121Z,9.4
2017-02-27T04:40:28.103Z,9.4
2017-02-27T04:41:34.089Z,9.4
2017-02-27T04:42:40.068Z,9.4
2017-02-27T04:43:46.053Z,9.4
2017-02-27T04:44:50.939Z,9.4
2017-02-27T04:45:56.920Z,9.4
2017-02-27T04:47:02.903Z,9.4
2017-02-27T04:48:08.888Z,9.5
2017-02-27T04:49:13.768Z,9.4
2017-02-27T04:50:19.756Z,9.4
2017-02-27T04:51:25.742Z,9.4
2017-02-27T04:52:31.729Z,9.4
2017-02-27T04:53:37.706Z,9.4
2017-02-27T04:54:43.696Z,9.4
2017-02-27T04:55:49.677Z,9.4
2017-02-27T04:56:55.660Z,9.4
2017-02-27T04:58:01.638Z,9.4
2017-02-27T04:59:07.629Z,9.4
2017-02-27T05:00:13.609Z,9.4
2017-02-27T05:01:19.593Z,9.4
2017-02-27T05:02:25.577Z,9.4
2017-02-27T05:03:31.562Z,9.4
2017-02-27T05:04:37.547Z,9.4
2017-02-27T05:05:43.528Z,9.4
2017-02-27T05:06:49.516Z,9.4
2017-02-27T05:07:55.497Z,9.5
2017-02-27T05:09:01.482Z,9.5
2017-02-27T05:10:07.465Z,9.5
2017-02-27T05:11:13.450Z,9.4
2017-02-27T05:12:18.770Z,9.5
2017-02-27T05:13:24.748Z,9.5
2017-02-27T05:14:30.738Z,9.5
2017-02-27T05:15:36.721Z,9.5
2017-02-27T05:16:42.705Z,9.4
2017-02-27T05:17:48.688Z,9.4
2017-02-27T05:18:54.676Z,9.4
2017-02-27T05:20:00.658Z,9.4
2017-02-27T05:21:06.640Z,9.4
2017-02-27T05:22:12.617Z,9.5
2017-02-27T05:23:18.606Z,9.5
2017-02-27T05:24:24.587Z,9.5
2017-02-27T05:25:30.570Z,9.5
2017-02-27T05:26:36.555Z,9.5
2017-02-27T05:27:41.875Z,9.5
2017-02-27T05:28:47.858Z,9.5
2017-02-27T05:29:53.844Z,9.5
2017-02-27T05:30:59.830Z,9.6
2017-02-27T05:32:05.807Z,9.6
2017-02-27T05:33:11.790Z,9.5
2017-02-27T05:34:17.770Z,9.5
2017-02-27T05:35:23.757Z,9.5
2017-02-27T05:36:29.741Z,9.5
2017-02-27T05:37:35.725Z,9.5
2017-02-27T05:38:41.706Z,9.5
2017-02-27T05:39:47.689Z,9.5
2017-02-27T05:40:53.675Z,9.5
2017-02-27T05:41:59.657Z,9.6
2017-02-27T05:43:05.639Z,9.6
2017-02-27T05:44:11.628Z,9.5
2017-02-27T05:45:16.515Z,9.5
2017-02-27T05:46:21.833Z,9.5
2017-02-27T05:47:27.818Z,9.5
2017-02-27T05:48:33.798Z,9.5
2017-02-27T05:49:39.786Z,9.5
2017-02-27T05:50:45.770Z,9.5
2017-02-27T05:51:51.752Z,9.5
2017-02-27T05:52:57.736Z,9.5
2017-02-27T05:54:03.721Z,9.6
2017-02-27T05:55:09.706Z,9.6
2017-02-27T05:56:15.692Z,9.6
2017-02-27T05:57:21.679Z,9.6
2017-02-27T05:58:27.659Z,9.7
2017-02-27T05:59:33.641Z,9.6
2017-02-27T06:00:39.623Z,9.6
2017-02-27T06:01:45.610Z,9.6
2017-02-27T06:02:51.595Z,9.6
2017-02-27T06:03:57.576Z,9.6
2017-02-27T06:05:03.563Z,9.6
2017-02-27T06:06:09.546Z,9.7
2017-02-27T06:07:15.529Z,9.6
2017-02-27T06:08:21.513Z,9.7
2017-02-27T06:09:27.499Z,9.6
2017-02-27T06:10:33.483Z,9.6
2017-02-27T06:11:39.467Z,9.6
2017-02-27T06:12:45.450Z,9.6
2017-02-27T06:13:51.436Z,9.6
2017-02-27T06:14:57.417Z,9.7
2017-02-27T06:16:03.404Z,9.6
2017-02-27T06:17:09.383Z,9.6
2017-02-27T06:18:15.365Z,9.6
2017-02-27T06:19:20.250Z,9.6
2017-02-27T06:20:26.231Z,9.7
2017-02-27T06:21:31.117Z,9.6
2017-02-27T06:22:37.103Z,9.6
2017-02-27T06:23:43.084Z,9.7
2017-02-27T06:24:49.065Z,9.7
2017-02-27T06:25:55.042Z,9.7
2017-02-27T06:27:01.029Z,9.7
2017-02-27T06:28:07.013Z,9.7
2017-02-27T06:29:12.995Z,9.7
2017-02-27T06:30:18.984Z,9.7
2017-02-27T06:31:24.967Z,9.7
2017-02-27T06:32:30.037Z,9.7
2017-02-27T06:33:36.017Z,9.7
2017-02-27T06:34:42.003Z,9.7
2017-02-27T06:35:47.984Z,9.7
2017-02-27T06:36:53.969Z,9.7
2017-02-27T06:39:07.578Z,9.7
2017-02-27T06:40:12.968Z,9.7
2017-02-27T06:41:18.951Z,9.8
2017-02-27T06:42:24.933Z,9.8
2017-02-27T06:43:30.918Z,9.8
2017-02-27T06:44:35.803Z,9.8
2017-02-27T06:45:41.124Z,9.8
2017-02-27T06:46:47.112Z,9.7
2017-02-27T06:47:53.094Z,9.8
2017-02-27T06:48:58.415Z,9.7
2017-02-27T06:50:04.805Z,9.7
2017-02-27T06:51:10.705Z,9.8
2017-02-27T06:52:16.693Z,9.8
2017-02-27T06:53:22.680Z,9.8
2017-02-27T06:54:30.028Z,9.9
2017-02-27T06:55:35.691Z,9.8
2017-02-27T06:56:41.016Z,9.8
2017-02-27T06:57:47.021Z,9.8
2017-02-27T06:58:52.985Z,9.8
2017-02-27T06:59:58.964Z,9.9
2017-02-27T07:01:04.959Z,9.9
2017-02-27T07:02:10.280Z,9.8
2017-02-27T07:03:16.266Z,9.9
2017-02-27T07:04:22.248Z,9.9
2017-02-27T07:05:28.752Z,9.9
2017-02-27T07:06:34.964Z,9.9
2017-02-27T07:07:40.965Z,9.9
2017-02-27T07:08:46.261Z,9.9
2017-02-27T07:09:52.242Z,9.9
2017-02-27T07:10:57.129Z,9.9
2017-02-27T07:12:03.115Z,9.9
2017-02-27T07:13:09.096Z,10
2017-02-27T07:14:15.086Z,10
2017-02-27T07:15:21.067Z,9.9
2017-02-27T07:16:27.052Z,9.9
2017-02-27T07:17:33.048Z,9.9
2017-02-27T07:18:39.041Z,9.9
2017-02-27T07:19:45.029Z,10
2017-02-27T07:20:51.010Z,10
2017-02-27T07:21:56.999Z,9.9
2017-02-27T07:23:02.987Z,9.9
2017-02-27T07:24:08.971Z,10
2017-02-27T07:25:14.959Z,10
2017-02-27T07:26:20.942Z,10
2017-02-27T07:27:26.927Z,10.1
2017-02-27T07:28:32.251Z,10.2
2017-02-27T07:29:38.238Z,10.1
2017-02-27T07:30:44.224Z,10.1
2017-02-27T07:31:50.212Z,10.1
2017-02-27T07:32:56.202Z,10
2017-02-27T07:34:02.186Z,10
2017-02-27T07:35:08.171Z,10.1
2017-02-27T07:36:14.154Z,10.1
2017-02-27T07:37:20.147Z,10.2
2017-02-27T07:38:26.129Z,10.1
2017-02-27T07:39:32.116Z,10.2
2017-02-27T07:40:38.104Z,10.2
2017-02-27T07:41:44.109Z,10.2
2017-02-27T07:42:50.079Z,10.1
2017-02-27T07:43:56.067Z,10.1
2017-02-27T07:45:02.057Z,10.1
2017-02-27T07:46:07.379Z,10.1
2017-02-27T07:47:13.361Z,10.1
2017-02-27T07:48:19.350Z,10.2
2017-02-27T07:49:25.346Z,10.2
2017-02-27T07:50:31.321Z,10.2
2017-02-27T07:51:37.312Z,10.2
2017-02-27T07:52:43.299Z,10.2
2017-02-27T07:53:49.331Z,10.3
2017-02-27T07:54:54.684Z,10.3
2017-02-27T07:56:00.623Z,10.4
2017-02-27T07:57:06.607Z,10.3
2017-02-27T07:58:12.594Z,10.3
2017-02-27T07:59:18.584Z,10.3
2017-02-27T08:00:24.568Z,10.4
2017-02-27T08:01:30.688Z,10.3
2017-02-27T08:02:36.572Z,10.3
2017-02-27T08:03:42.553Z,10.4
2017-02-27T08:04:48.539Z,10.4
2017-02-27T08:05:54.527Z,10.4
2017-02-27T08:07:00.512Z,10.4
2017-02-27T08:08:06.497Z,10.3
2017-02-27T08:09:12.488Z,10.4
2017-02-27T08:10:18.476Z,10.4
2017-02-27T08:11:24.463Z,10.4
2017-02-27T08:12:30.450Z,10.4
2017-02-27T08:13:36.433Z,10.5
2017-02-27T08:14:41.320Z,10.5
2017-02-27T08:15:47.301Z,10.5
2017-02-27T08:16:53.286Z,10.5
2017-02-27T08:17:59.310Z,10.7
2017-02-27T08:19:04.686Z,10.6
2017-02-27T08:20:10.671Z,10.7
2017-02-27T08:21:16.663Z,10.6
2017-02-27T08:22:21.985Z,10.6
2017-02-27T08:23:27.970Z,10.6
2017-02-27T08:24:33.959Z,10.6
2017-02-27T08:25:38.843Z,10.5
2017-02-27T08:26:44.845Z,10.6
2017-02-27T08:27:50.811Z,10.7
2017-02-27T08:28:56.799Z,10.7
2017-02-27T08:30:02.787Z,10.7
2017-02-27T08:31:08.771Z,10.7
2017-02-27T08:32:14.760Z,10.7
2017-02-27T08:33:20.758Z,10.7
2017-02-27T08:34:26.736Z,10.7
2017-02-27T08:35:32.719Z,10.7
2017-02-27T08:36:38.743Z,10.7
2017-02-27T08:37:44.736Z,10.8
2017-02-27T08:38:49.623Z,10.9
2017-02-27T08:39:55.609Z,10.9
2017-02-27T08:41:01.590Z,10.9
2017-02-27T08:42:07.581Z,10.9
2017-02-27T08:43:13.566Z,11
2017-02-27T08:44:19.551Z,11
2017-02-27T08:45:25.536Z,11
2017-02-27T08:46:31.524Z,10.9
2017-02-27T08:47:36.852Z,10.9
2017-02-27T08:48:42.831Z,10.9
2017-02-27T08:49:48.821Z,10.9
2017-02-27T08:50:54.811Z,11
2017-02-27T08:52:00.813Z,11.1
2017-02-27T08:53:06.134Z,11.1
2017-02-27T08:54:12.123Z,11.1
2017-02-27T08:55:18.104Z,11.1
2017-02-27T08:56:24.087Z,11.2
2017-02-27T08:57:30.071Z,11.2
2017-02-27T08:58:36.061Z,11.2
2017-02-27T08:59:42.045Z,11.2
2017-02-27T09:00:48.033Z,11.2
2017-02-27T09:01:54.014Z,11.1
2017-02-27T09:02:59.998Z,11.2
2017-02-27T09:04:04.883Z,11.2
2017-02-27T09:05:10.873Z,11.2
2017-02-27T09:06:16.194Z,11.3
2017-02-27T09:07:22.182Z,11.2
2017-02-27T09:08:28.168Z,11.3
2017-02-27T09:09:33.493Z,11.3
2017-02-27T09:10:39.476Z,11.4
2017-02-27T09:11:45.465Z,11.3
2017-02-27T09:12:51.450Z,11.2
2017-02-27T09:13:57.434Z,11.3
2017-02-27T09:15:03.417Z,11.4
2017-02-27T09:16:09.405Z,11.4
2017-02-27T09:17:15.395Z,11.3
2017-02-27T09:18:21.375Z,11.3
2017-02-27T09:19:27.366Z,11.4
2017-02-27T09:20:33.359Z,11.3
2017-02-27T09:21:39.339Z,11.4
2017-02-27T09:22:45.319Z,11.5
2017-02-27T09:23:51.307Z,11.5
2017-02-27T09:24:57.296Z,11.5
2017-02-27T09:26:03.283Z,11.5
2017-02-27T09:27:09.270Z,11.5
2017-02-27T09:28:15.255Z,11.4
2017-02-27T09:29:21.238Z,11.4
2017-02-27T09:30:26.562Z,11.4
2017-02-27T09:31:32.547Z,11.4
2017-02-27T09:32:38.533Z,11.5
2017-02-27T09:33:43.854Z,11.5
2017-02-27T09:34:49.841Z,11.5
2017-02-27T09:35:55.825Z,11.4
2017-02-27T09:37:01.813Z,11.6
2017-02-27T09:38:07.803Z,11.5
2017-02-27T09:39:13.790Z,11.6
2017-02-27T09:40:19.112Z,11.7
2017-02-27T09:41:25.099Z,11.5
2017-02-27T09:42:31.084Z,11.7
2017-02-27T09:43:37.069Z,11.7
2017-02-27T09:44:43.056Z,11.8
2017-02-27T09:45:49.042Z,11.7
2017-02-27T09:46:54.364Z,11.8
2017-02-27T09:48:00.352Z,12
2017-02-27T09:49:06.339Z,12
2017-02-27T09:50:12.327Z,11.9
2017-02-27T09:51:18.313Z,12
2017-02-27T09:52:24.300Z,12
2017-02-27T09:53:30.294Z,11.9
2017-02-27T09:54:35.609Z,12
2017-02-27T09:55:41.592Z,12
2017-02-27T09:56:46.917Z,12
2017-02-27T09:57:52.901Z,11.7
2017-02-27T09:58:58.895Z,11.8
2017-02-27T10:00:03.775Z,11.8
2017-02-27T10:01:09.762Z,11.9
2017-02-27T10:02:15.746Z,12
2017-02-27T10:03:21.739Z,12
2017-02-27T10:04:27.721Z,12.1
2017-02-27T10:05:33.707Z,12
2017-02-27T10:06:39.690Z,11.9
2017-02-27T10:07:45.677Z,11.8
2017-02-27T10:08:51.666Z,11.9
2017-02-27T10:09:56.996Z,12
2017-02-27T10:11:02.981Z,11.9
2017-02-27T10:12:08.965Z,11.9
2017-02-27T10:13:14.281Z,11.9
2017-02-27T10:14:19.172Z,11.9
2017-02-27T10:15:25.155Z,11.9
2017-02-27T10:16:31.140Z,11.9
2017-02-27T10:17:37.131Z,12
2017-02-27T10:18:43.122Z,11.9
2017-02-27T10:19:49.101Z,11.9
2017-02-27T10:20:54.422Z,11.9
2017-02-27T10:22:00.410Z,11.9
2017-02-27T10:23:06.395Z,11.8
2017-02-27T10:24:12.383Z,11.9
2017-02-27T10:25:18.370Z,12
2017-02-27T10:26:24.358Z,12
2017-02-27T10:27:30.339Z,12
2017-02-27T10:28:36.324Z,12
2017-02-27T10:29:42.313Z,12
2017-02-27T10:30:48.300Z,12
2017-02-27T10:31:54.283Z,12
2017-02-27T10:33:00.297Z,12.1
2017-02-27T10:34:06.260Z,12.3
2017-02-27T10:35:12.241Z,12.2
2017-02-27T10:36:17.567Z,12.2
2017-02-27T10:37:23.558Z,12.2
2017-02-27T10:38:29.541Z,12.3
2017-02-27T10:39:35.528Z,12.2
2017-02-27T10:40:41.517Z,12
2017-02-27T10:41:47.504Z,12.1
2017-02-27T10:42:53.484Z,12.1
2017-02-27T10:43:59.473Z,12.2
2017-02-27T10:45:05.458Z,12.3
2017-02-27T10:46:11.442Z,12.3
2017-02-27T10:47:17.431Z,12.1
2017-02-27T10:48:23.419Z,12
2017-02-27T10:49:29.402Z,12
2017-02-27T10:50:35.391Z,12.1
2017-02-27T10:51:41.380Z,12.1
2017-02-27T10:52:46.261Z,11.9
2017-02-27T10:53:52.244Z,12
2017-02-27T10:54:58.231Z,12
2017-02-27T10:56:04.220Z,12
2017-02-27T10:57:10.212Z,11.9
2017-02-27T10:58:16.197Z,11.9
2017-02-27T10:59:22.180Z,11.9
2017-02-27T11:00:28.164Z,11.9
2017-02-27T11:01:34.150Z,11.9
2017-02-27T11:02:40.140Z,12.1
2017-02-27T11:03:46.125Z,11.9
2017-02-27T11:04:52.114Z,11.9
2017-02-27T11:05:58.102Z,12.1
2017-02-27T11:07:02.994Z,12.1
2017-02-27T11:08:08.975Z,12.2
2017-02-27T11:09:14.955Z,12
2017-02-27T11:10:20.942Z,12
2017-02-27T11:11:26.926Z,12
2017-02-27T11:12:32.913Z,12.2
2017-02-27T11:13:38.896Z,12
2017-02-27T11:14:44.881Z,12.1
2017-02-27T11:15:50.866Z,12.1
2017-02-27T11:16:56.855Z,12.1
2017-02-27T11:18:02.841Z,12.1
2017-02-27T11:19:08.839Z,12
2017-02-27T11:20:14.817Z,12
2017-02-27T11:21:20.799Z,12.1
2017-02-27T11:22:26.125Z,12.2
2017-02-27T11:23:32.128Z,12.1
2017-02-27T11:24:38.116Z,12.2
2017-02-27T11:25:44.099Z,12.3
2017-02-27T11:26:50.085Z,12.2
2017-02-27T11:27:56.077Z,12.3
2017-02-27T11:29:00.968Z,12.4
2017-02-27T11:30:06.290Z,12.5
2017-02-27T11:31:12.290Z,12.4
2017-02-27T11:32:18.266Z,12.4
2017-02-27T11:33:24.424Z,12.5
2017-02-27T11:34:30.592Z,12.7
2017-02-27T11:35:36.585Z,12.8
2017-02-27T11:36:42.393Z,12.7
2017-02-27T11:37:48.382Z,12.7
2017-02-27T11:38:54.372Z,12.7
2017-02-27T11:40:00.356Z,12.6
2017-02-27T11:41:06.339Z,12.5
2017-02-27T11:42:12.328Z,12.5
2017-02-27T11:43:18.320Z,12.7
2017-02-27T11:44:24.298Z,12.8
2017-02-27T11:45:29.387Z,12.9
2017-02-27T11:46:35.374Z,12.8
2017-02-27T11:47:41.357Z,12.9
2017-02-27T11:48:47.343Z,12.9
2017-02-27T11:49:52.237Z,13
2017-02-27T11:50:58.213Z,13
2017-02-27T11:52:04.197Z,13
2017-02-27T11:53:10.183Z,12.9
2017-02-27T11:54:16.181Z,12.9
2017-02-27T11:55:22.160Z,12.9
2017-02-27T11:56:27.483Z,12.9
2017-02-27T11:57:33.478Z,13
2017-02-27T11:58:39.466Z,12.9
2017-02-27T11:59:45.452Z,12.8
2017-02-27T12:00:51.449Z,13
2017-02-27T12:01:57.615Z,13.1
2017-02-27T12:03:03.604Z,13.3
2017-02-27T12:04:09.595Z,13.3
2017-02-27T12:05:14.922Z,13.7
2017-02-27T12:06:21.051Z,13.7
2017-02-27T12:07:27.038Z,13.9
2017-02-27T12:08:33.598Z,14
2017-02-27T12:09:39.907Z,14.3
2017-02-27T12:10:44.463Z,14.4
2017-02-27T12:11:50.074Z,14.4
2017-02-27T12:12:56.039Z,14.4
2017-02-27T12:14:02.021Z,14.3
2017-02-27T12:15:08.011Z,14
2017-02-27T12:16:13.996Z,14.1
2017-02-27T12:17:20.143Z,14.2
2017-02-27T12:18:26.122Z,14
2017-02-27T12:19:32.112Z,14
2017-02-27T12:20:36.998Z,14.1
2017-02-27T12:21:42.981Z,14.4
2017-02-27T12:22:48.964Z,14.4
2017-02-27T12:23:54.950Z,14.6
2017-02-27T12:25:00.936Z,14.8
2017-02-27T12:26:06.924Z,14.5
2017-02-27T12:27:12.915Z,14.6
2017-02-27T12:28:18.231Z,14.4
2017-02-27T12:29:24.216Z,14.1
2017-02-27T12:30:30.238Z,14.2
2017-02-27T12:31:36.221Z,14.1
2017-02-27T12:32:41.578Z,14.1
2017-02-27T12:33:47.721Z,13.9
2017-02-27T12:34:53.041Z,14.1
2017-02-27T12:35:59.025Z,14
2017-02-27T12:37:04.353Z,14.1
2017-02-27T12:38:10.337Z,14.1
2017-02-27T12:39:16.321Z,13.9
2017-02-27T12:40:22.306Z,13.8
2017-02-27T12:41:28.297Z,13.7
2017-02-27T12:42:34.280Z,13.9
2017-02-27T12:43:40.266Z,13.8
2017-02-27T12:44:46.257Z,13.9
2017-02-27T12:45:52.244Z,13.8
2017-02-27T12:46:58.590Z,13.8
2017-02-27T12:48:04.234Z,13.6
2017-02-27T12:49:10.589Z,13.5
2017-02-27T12:50:16.215Z,13.4
2017-02-27T12:51:22.576Z,13.4
2017-02-27T12:52:27.088Z,13.4
2017-02-27T12:53:33.075Z,13.4
2017-02-27T12:54:39.063Z,13.4
2017-02-27T12:55:45.045Z,13.3
2017-02-27T12:56:51.030Z,13.5
2017-02-27T12:57:57.017Z,13.6
2017-02-27T12:59:03.004Z,13.4
2017-02-27T13:00:08.989Z,13.5
2017-02-27T13:01:14.976Z,13.6
2017-02-27T13:02:20.963Z,13.6
2017-02-27T13:03:27.183Z,13.7
2017-02-27T13:04:33.051Z,13.7
2017-02-27T13:05:39.482Z,13.7
2017-02-27T13:06:45.038Z,13.5
2017-02-27T13:07:51.025Z,13.5
2017-02-27T13:08:57.004Z,13.4
2017-02-27T13:10:02.993Z,13.4
2017-02-27T13:11:08.978Z,13.6
2017-02-27T13:12:14.963Z,13.6
2017-02-27T13:13:20.291Z,13.7
2017-02-27T13:14:25.619Z,13.8
2017-02-27T13:15:31.603Z,13.7
2017-02-27T13:16:37.587Z,13.7
2017-02-27T13:17:43.572Z,13.6
2017-02-27T13:18:49.560Z,13.4
2017-02-27T13:19:54.884Z,13.4
2017-02-27T13:21:00.871Z,13.3
2017-02-27T13:22:06.859Z,13.5
2017-02-27T13:23:12.180Z,13.5
2017-02-27T13:24:18.166Z,13.4
2017-02-27T13:25:24.152Z,13.4
2017-02-27T13:26:30.184Z,13.3
2017-02-27T13:27:36.151Z,13.3
2017-02-27T13:28:41.034Z,13.4
2017-02-27T13:29:47.021Z,13.4
2017-02-27T13:30:53.007Z,13.4
2017-02-27T13:31:57.906Z,13.3
2017-02-27T13:33:03.882Z,13.3
2017-02-27T13:34:09.867Z,13.3
2017-02-27T13:35:15.854Z,13.4
2017-02-27T13:36:21.840Z,13.6
2017-02-27T13:37:26.724Z,13.6
2017-02-27T13:38:32.818Z,13.7
2017-02-27T13:39:38.805Z,13.7
2017-02-27T13:40:44.818Z,13.4
2017-02-27T13:41:50.810Z,13.3
2017-02-27T13:42:56.644Z,13.4
2017-02-27T13:44:02.129Z,13.2
2017-02-27T13:45:08.114Z,13.3
2017-02-27T13:46:14.097Z,13.3
2017-02-27T13:47:20.095Z,13.3
2017-02-27T13:48:25.567Z,13.2
2017-02-27T13:49:31.557Z,13.2
2017-02-27T13:50:37.542Z,13
2017-02-27T13:51:43.528Z,13
2017-02-27T13:52:49.518Z,12.8
2017-02-27T13:53:55.510Z,12.8
2017-02-27T13:55:01.717Z,12.7
2017-02-27T13:56:07.704Z,12.8
2017-02-27T13:57:13.692Z,12.9
2017-02-27T13:58:19.688Z,12.8
2017-02-27T13:59:25.670Z,12.7
2017-02-27T14:00:31.659Z,12.7
2017-02-27T14:01:37.646Z,12.7
2017-02-27T14:02:43.633Z,12.7
2017-02-27T14:03:49.619Z,12.6
2017-02-27T14:04:55.599Z,12.6
2017-02-27T14:06:01.587Z,12.7
2017-02-27T14:07:07.573Z,12.6
2017-02-27T14:08:13.565Z,12.7
2017-02-27T14:09:19.548Z,12.5
2017-02-27T14:10:25.536Z,12.7
2017-02-27T14:11:31.522Z,12.7
2017-02-27T14:12:36.845Z,12.8
2017-02-27T14:13:42.831Z,12.7
2017-02-27T14:14:48.822Z,12.6
2017-02-27T14:15:54.805Z,12.5
2017-02-27T14:17:00.789Z,12.4
2017-02-27T14:18:06.779Z,12.5
2017-02-27T14:19:12.765Z,12.6
2017-02-27T14:20:18.754Z,12.6
2017-02-27T14:21:24.735Z,12.6
2017-02-27T14:22:31.050Z,12.6
2017-02-27T14:23:37.252Z,12.6
2017-02-27T14:24:43.064Z,12.6
2017-02-27T14:25:49.034Z,12.6
2017-02-27T14:26:55.026Z,12.6
2017-02-27T14:28:01.010Z,12.6
2017-02-27T14:29:06.997Z,12.6
2017-02-27T14:30:12.981Z,12.6
2017-02-27T14:31:18.348Z,12.7
2017-02-27T14:32:24.332Z,12.6
2017-02-27T14:33:30.323Z,12.7
2017-02-27T14:34:36.306Z,12.8
2017-02-27T14:35:42.320Z,12.8
2017-02-27T14:36:48.304Z,12.9
2017-02-27T14:37:54.296Z,12.8
2017-02-27T14:39:00.282Z,12.8
2017-02-27T14:40:06.265Z,12.6
2017-02-27T14:41:12.256Z,12.7
2017-02-27T14:42:18.244Z,12.7
2017-02-27T14:43:24.227Z,12.6
2017-02-27T14:44:30.214Z,12.6
2017-02-27T14:45:35.545Z,12.6
2017-02-27T14:46:41.650Z,12.7
2017-02-27T14:47:47.537Z,12.7
2017-02-27T14:48:53.522Z,12.7
2017-02-27T14:49:59.512Z,12.7
2017-02-27T14:51:04.397Z,12.7
2017-02-27T14:52:10.406Z,12.8
2017-02-27T14:53:16.398Z,12.7
2017-02-27T14:54:22.385Z,12.6
2017-02-27T14:55:27.812Z,12.6
2017-02-27T14:56:33.797Z,12.6
2017-02-27T14:57:39.784Z,12.6
2017-02-27T14:58:45.770Z,12.5
2017-02-27T14:59:51.758Z,12.5
2017-02-27T15:00:57.743Z,12.7
2017-02-27T15:02:03.728Z,12.7
2017-02-27T15:03:09.717Z,12.7
2017-02-27T15:04:15.740Z,12.6
2017-02-27T15:05:21.723Z,12.6
2017-02-27T15:06:27.710Z,12.6
2017-02-27T15:07:33.696Z,12.7
2017-02-27T15:08:39.685Z,12.7
2017-02-27T15:09:45.675Z,12.5
2017-02-27T15:10:51.665Z,12.5
2017-02-27T15:11:56.553Z,12.6
2017-02-27T15:13:01.873Z,12.6
2017-02-27T15:14:07.860Z,12.6